ヌクアロファ の空港の天気 - METARとTAF

ファアモツ国際空港 ( NFTF / TBU ) - トンガ ヌクアロファ
飛行場実況気象(Metar)
観測時間08/19 03:00 TOT (08/18 14:00 UTC)
風向・風速東南東 6m/s 瞬間風速13m/s
視程10km以上
天気現象
少しの雲 雲底高度 490m
気温22℃
湿度73%
気圧1021hPa
METARNFTF 181400Z 11011G26KT 9999 FEW016 22/17 Q1021
過去の天気等 Google飛行場航空写真 Wunderground天気予報

過去48時間のMETAR

飛行場予報(TAF)
発表時間: 8/19 00:19 TOT (8/18 11:19 UTC)
予報対象時間: 19日1時 TOT ~ 20日1時 TOT
風向・風速東 6m/s
視程10km以上
少しの雲 雲底高度 490m
全天の4割程度の雲 雲底高度 1070m
19日1時 TOT ~ 19日13時 TOT に一時的に
風向・風速東 10m/s 瞬間風速 15m/s
視程5000m
天気現象しゅう雨
全天の8割程度の雲 雲底高度 460m
TAF NFTF 181119Z 1812/1912 10012KT 9999 FEW016 SCT035
TEMPO 1812/1824 10020G30KT 5000 SHRA BKN015